Flight Track Log - Related Links

Times and Time Zones

All times are in EDT time to prevent confusion due to time zone crossing. See the CCA4524 flight status page for this flight to view local times or setup timezone preferences in your user account.

Time Position Orientation Groundspeed Altitude Reporting Facility
EDT Latitude Longitude Course Direction KTS MPH feet Rate Location/Type
Sat 05:26:23 AM 31.0530 121.8270 162° South 204 235 4,100  Level FlightAware ADS-B
Sat 05:26:54 AM 31.0210 121.8370 165° South 246 283 4,900 1,636 Climbing FlightAware ADS-B
Sat 05:27:18 AM 30.9940 121.8240 202° Southwest 255 293 5,600 2,000 Climbing FlightAware ADS-B
Sat 05:27:39 AM 30.9840 121.8000 244° Southwest 249 287 6,400 2,182 Climbing FlightAware ADS-B
Sat 05:27:51 AM 30.9800 121.7860 252° West 253 291 6,800 2,571 Climbing FlightAware ADS-B
Sat 05:28:14 AM 30.9710 121.7520 253° West 262 302 7,900 2,757 Climbing FlightAware ADS-B
Sat 05:28:28 AM 30.9670 121.7320 257° West 268 308 8,500 2,864 Climbing FlightAware ADS-B
Sat 05:28:58 AM 30.9800 121.6900 290° West 271 312 10,000 2,262 Climbing FlightAware ADS-B
Sat 05:29:29 AM 31.0000 121.6500 300° West 303 349 10,800 1,690 Climbing FlightAware ADS-B
Sat 05:30:09 AM 31.0410 121.6010 314° West 322 371 12,000 2,188 Climbing FlightAware ADS-B
Sat 05:30:54 AM 31.0870 121.5480 315° West 323 372 13,900 2,471 Climbing FlightAware ADS-B
Sat 05:31:34 AM 31.1310 121.4960 315° West 324 373 15,500 2,018 Climbing FlightAware ADS-B
Sat 05:32:44 AM 31.2100 121.4020 315° West 352 405 17,600 1,789 Climbing FlightAware ADS-B
Sat 05:33:28 AM 31.2630 121.3390 315° West 364 419 18,900 1,553 Climbing FlightAware ADS-B
Sat 05:34:09 AM 31.3120 121.2820 315° West 369 425 19,800 505 Climbing FlightAware ADS-B
Sat 05:35:03 AM 31.3780 121.2030 314° West 393 452 19,700 -67 Descending FlightAware ADS-B
Sat 05:35:39 AM 31.4300 121.1460 317° Northwest 399 459 19,700 308 Level FlightAware ADS-B
Sat 05:36:21 AM 31.4910 121.0970 326° Northwest 415 478 20,100 1,875 Climbing FlightAware ADS-B
Sat 05:36:59 AM 31.5600 121.0570 334° Northwest 389 448 22,200 2,067 Climbing FlightAware ADS-B
Sat 05:37:51 AM 31.6320 121.0200 336° Northwest 384 442 23,200 1,875 Climbing FlightAware ADS-B
Sat 05:39:07 AM 31.7440 120.9580 335° Northwest 340 391 26,200 1,607 Climbing FlightAware ADS-B
Sat 05:39:43 AM 31.7870 120.9330 334° Northwest 340 391 26,200 2,381 Level FlightAware ADS-B
Sat 05:39:53 AM 31.7990 120.9020 294° West 28,200 5,556 Climbing FlightAware ADS-B
Sat 05:40:10 AM 31.8210 120.8730 312° West 340 391 28,700 517 Climbing FlightAware ADS-B
Sat 05:40:51 AM 31.8580 120.8250 312° West 340 391 28,700  Level FlightAware ADS-B
Sat 05:41:37 AM 31.8990 120.7720 312° West 340 391 28,700  Level FlightAware ADS-B
Sat 05:42:13 AM 31.9310 120.7290 311° West 340 391 28,700  Level FlightAware ADS-B
Sat 05:43:01 AM 31.9740 120.6730 312° West 340 391 28,700  Level FlightAware ADS-B
Sat 05:43:37 AM 32.0060 120.6310 312° West 340 391 28,700 2,541 Level FlightAware ADS-B
Sat 05:43:56 AM 32.0850 120.5790 331° Northwest 32,500 3,760 Climbing FlightAware ADS-B
Sat 05:44:11 AM 32.0920 120.5460 284° West 32,700 964 Climbing FlightAware ADS-B
Sat 05:44:52 AM 32.1090 120.4600 283° West 395 455 33,400 772 Climbing FlightAware ADS-B
Sat 05:45:52 AM 32.1320 120.3420 283° West 398 458 34,000 1,085 Climbing FlightAware ADS-B
Sat 05:46:26 AM 32.1480 120.2690 285° West 398 458 35,100 1,429 Climbing FlightAware ADS-B
Sat 05:47:16 AM 32.1710 120.1560 284° West 402 463 36,000 667 Climbing FlightAware ADS-B
Sat 05:47:56 AM 32.1890 120.0680 284° West 412 474 36,100 75 Climbing FlightAware ADS-B
Sat 05:48:36 AM 32.2070 119.9760 283° West 422 486 36,100  Level FlightAware ADS-B
Sat 05:49:16 AM 32.2250 119.8890 284° West 422 486 36,100  Level FlightAware ADS-B
Sat 05:49:56 AM 32.2430 119.7980 283° West 421 484 36,100  Level FlightAware ADS-B
Sat 05:50:36 AM 32.2600 119.7080 283° West 420 483 36,100  Level FlightAware ADS-B
Sat 05:51:17 AM 32.2750 119.6170 281° West 420 483 36,100  Level FlightAware ADS-B
Sat 05:51:46 AM 32.2860 119.5500 281° West 420 483 36,100  Level FlightAware ADS-B
Sat 05:52:36 AM 32.3050 119.4390 281° West 421 484 36,100  Level FlightAware ADS-B
Sat 05:53:11 AM 32.3190 119.3620 282° West 420 483 36,100  Level FlightAware ADS-B
Sat 05:54:01 AM 32.3380 119.2480 281° West 422 486 36,100  Level FlightAware ADS-B
Sat 05:54:36 AM 32.3500 119.1770 281° West 423 487 36,100  Level FlightAware ADS-B
Sat 05:55:52 AM 32.3770 119.0170 281° West 423 487 36,100  Level FlightAware ADS-B
Sat 05:56:31 AM 32.3950 118.9110 281° West 421 484 36,100  Level FlightAware ADS-B
Sat 05:57:01 AM 32.4070 118.8400 281° West 423 487 36,100  Level FlightAware ADS-B
Sat 05:57:49 AM 32.4220 118.7460 281° West 422 486 36,100  Level FlightAware ADS-B
Sat 05:58:26 AM 32.4340 118.6740 281° West 422 486 36,100  Level FlightAware ADS-B
Sat 05:59:03 AM 32.4460 118.6030 281° West 422 486 36,100  Level FlightAware ADS-B
Sat 06:00:04 AM 32.4740 118.4310 281° West 421 484 36,100  Level FlightAware ADS-B
Sat 06:00:39 AM 32.4870 118.3490 281° West 422 486 36,100  Level FlightAware ADS-B
Sat 06:01:19 AM 32.5020 118.2570 281° West 424 488 36,100  Level FlightAware ADS-B
Sat 06:02:01 AM 32.5170 118.1640 281° West 425 489 36,100  Level FlightAware ADS-B
Sat 06:02:44 AM 32.5330 118.0680 281° West 424 488 36,100  Level FlightAware ADS-B
Sat 06:03:31 AM 32.5480 117.9650 280° West 426 490 36,100  Level FlightAware ADS-B
Sat 06:04:07 AM 32.5590 117.8950 281° West 426 490 36,100  Level FlightAware ADS-B
Sat 06:04:55 AM 32.5730 117.8010 280° West 426 490 36,100  Level FlightAware ADS-B
Sat 06:05:30 AM 32.5830 117.7320 280° West 426 490 36,100  Level FlightAware ADS-B
Sat 06:06:17 AM 32.5970 117.6400 280° West 426 490 36,100  Level FlightAware ADS-B
Sat 06:06:54 AM 32.6070 117.5680 279° West 426 490 36,100  Level FlightAware ADS-B
Sat 06:07:43 AM 32.6220 117.4720 281° West 426 490 36,100  Level FlightAware ADS-B
Sat 06:08:20 AM 32.6320 117.3990 279° West 426 490 36,100  Level FlightAware ADS-B
Sat 06:08:56 AM 32.6430 117.3290 281° West 426 490 36,100  Level FlightAware ADS-B
Sat 06:09:43 AM 32.6570 117.2370 280° West 426 490 36,100  Level FlightAware ADS-B
Sat 06:10:20 AM 32.6670 117.1640 279° West 426 490 36,100  Level FlightAware ADS-B
Sat 06:11:46 AM 32.6920 116.9960 280° West 426 490 36,100  Level FlightAware ADS-B
Sat 06:12:34 AM 32.7060 116.9010 280° West 426 490 36,100  Level FlightAware ADS-B
Sat 06:12:59 AM 32.7140 116.8520 281° West 426 490 36,100  Level FlightAware ADS-B
Sat 06:15:00 AM 32.7289 116.6139 274° West  Level Estimated
Sat 06:16:00 AM 32.7361 116.4958 274° West  Level Estimated
Sat 06:17:00 AM 32.7432 116.3776 274° West  Level Estimated
Sat 06:18:00 AM 32.7502 116.2595 274° West  Level Estimated
Sat 06:19:00 AM 32.7571 116.1413 274° West  Level Estimated
Sat 06:20:00 AM 32.7638 116.0231 274° West  Level Estimated
Sat 06:21:00 AM 32.7705 115.9049 274° West  Level Estimated
Sat 06:22:00 AM 32.7770 115.7867 274° West  Level Estimated
Sat 06:23:00 AM 32.7835 115.6685 274° West  Level Estimated
Sat 06:24:00 AM 32.7898 115.5502 274° West  Level Estimated
Sat 06:25:00 AM 32.7960 115.4319 274° West  Level Estimated
Sat 06:26:00 AM 32.8021 115.3136 274° West  Level Estimated
Sat 06:27:00 AM 32.8081 115.1953 273° West  Level Estimated
Sat 06:28:00 AM 32.8140 115.0770 273° West  Level Estimated
Sat 06:29:00 AM 32.8198 114.9587 273° West  Level Estimated
Sat 06:30:00 AM 32.8254 114.8403 273° West  Level Estimated
Sat 06:31:00 AM 32.8310 114.7219 273° West  Level Estimated
Sat 06:32:00 AM 32.8364 114.6036 273° West  Level Estimated
Sat 06:33:00 AM 32.8417 114.4852 273° West  Level Estimated
Sat 06:34:00 AM 32.8470 114.3668 273° West  Level Estimated
Sat 06:35:00 AM 32.8521 114.2483 273° West  Level Estimated
Sat 06:36:00 AM 32.8570 114.1299 273° West  Level Estimated
Sat 06:37:00 AM 32.8619 114.0115 273° West  Level Estimated
Sat 06:38:00 AM 32.8667 113.8930 273° West  Level Estimated
Sat 06:39:00 AM 32.8713 113.7745 273° West  Level Estimated
Sat 06:40:00 AM 32.8759 113.6560 273° West  Level Estimated
Sat 06:41:00 AM 32.8803 113.5375 273° West  Level Estimated
Sat 06:42:00 AM 32.8846 113.4190 273° West  Level Estimated
Sat 06:43:00 AM 32.8889 113.3005 272° West  Level Estimated
Sat 06:44:00 AM 32.8929 113.1820 272° West  Level Estimated
Sat 06:45:00 AM 32.8969 113.0634 272° West  Level Estimated
Sat 06:46:00 AM 32.9008 112.9449 272° West  Level Estimated
Sat 06:47:00 AM 32.9046 112.8263 272° West  Level Estimated
Sat 06:48:00 AM 32.9082 112.7077 272° West  Level Estimated
Sat 06:49:00 AM 32.9118 112.5891 272° West  Level Estimated
Sat 06:50:00 AM 32.9152 112.4705 272° West  Level Estimated
Sat 06:51:00 AM 32.9185 112.3519 272° West  Level Estimated
Sat 06:52:00 AM 32.9217 112.2333 272° West  Level Estimated
Sat 06:53:00 AM 32.9248 112.1147 272° West  Level Estimated
Sat 06:54:00 AM 32.9278 111.9961 272° West  Level Estimated
Sat 06:55:00 AM 32.9306 111.8774 272° West  Level Estimated
Sat 06:56:00 AM 32.9334 111.7588 272° West  Level Estimated
Sat 06:57:00 AM 32.9360 111.6401 272° West  Level Estimated
Sat 06:58:00 AM 32.9385 111.5215 271° West  Level Estimated
Sat 06:59:00 AM 32.9410 111.4028 271° West  Level Estimated
Sat 07:00:00 AM 32.9433 111.2841 271° West  Level Estimated
Sat 07:01:00 AM 32.9455 111.1655 271° West  Level Estimated
Sat 07:02:00 AM 32.9475 111.0468 271° West  Level Estimated
Sat 07:03:00 AM 32.9495 110.9281 271° West  Level Estimated
Sat 07:04:00 AM 32.9514 110.8094 271° West  Level Estimated
Sat 07:05:00 AM 32.9531 110.6907 271° West  Level Estimated
Sat 07:06:00 AM 32.9547 110.5720 271° West  Level Estimated
Sat 07:07:00 AM 32.9563 110.4533 271° West  Level Estimated
Sat 07:08:00 AM 32.9577 110.3346 271° West  Level Estimated
Sat 07:09:00 AM 32.9590 110.2159 271° West  Level Estimated
Sat 07:10:00 AM 32.9601 110.0972 271° West  Level Estimated
Sat 07:11:00 AM 32.9612 109.9784 271° West  Level Estimated
Sat 07:12:00 AM 32.9622 109.8597 271° West  Level Estimated
Sat 07:13:00 AM 32.9630 109.7410 271° West  Level Estimated
Sat 07:14:00 AM 32.9637 109.6223 270° West  Level Estimated
Sat 07:15:00 AM 32.9644 109.5035 270° West  Level Estimated
Sat 07:16:00 AM 32.9649 109.3848 270° West  Level Estimated
Sat 07:17:00 AM 32.9653 109.2661 270° West  Level Estimated
Sat 07:18:00 AM 32.9656 109.1473 270° West  Level Estimated
Sat 07:19:00 AM 32.9657 109.0286 270° West  Level Estimated
Sat 07:20:00 AM 32.9658 108.9099 270° West  Level Estimated
Sat 07:21:00 AM 32.9657 108.7911 270° West  Level Estimated
Sat 07:22:00 AM 32.9656 108.6724 270° West  Level Estimated
Sat 07:23:00 AM 32.9653 108.5537 270° West  Level Estimated
Sat 07:24:00 AM 32.9649 108.4350 270° West  Level Estimated
Sat 07:25:00 AM 32.9644 108.3162 270° West  Level Estimated
Sat 07:26:00 AM 32.9638 108.1975 270° West  Level Estimated
Sat 07:27:00 AM 32.9631 108.0788 270° West  Level Estimated
Sat 07:28:00 AM 32.9622 107.9600 270° West  Level Estimated
Sat 07:29:00 AM 32.9613 107.8413 269° West  Level Estimated
Sat 07:30:00 AM 32.9602 107.7226 269° West  Level Estimated
Sat 07:31:00 AM 32.9590 107.6039 269° West  Level Estimated
Sat 07:32:00 AM 32.9577 107.4852 269° West  Level Estimated
Sat 07:33:00 AM 32.9563 107.3664 269° West  Level Estimated
Sat 07:34:00 AM 32.9548 107.2477 269° West  Level Estimated
Sat 07:35:00 AM 32.9532 107.1290 269° West  Level Estimated
Sat 07:36:00 AM 32.9515 107.0103 269° West  Level Estimated
Sat 07:37:00 AM 32.9496 106.8916 269° West  Level Estimated
Sat 07:38:00 AM 32.9476 106.7729 269° West  Level Estimated
Sat 07:39:00 AM 32.9456 106.6543 269° West  Level Estimated
Sat 07:40:00 AM 32.9434 106.5356 269° West  Level Estimated
Sat 07:41:00 AM 32.9411 106.4169 269° West  Level Estimated
Sat 07:42:00 AM 32.9387 106.2982 269° West  Level Estimated
Sat 07:43:00 AM 32.9361 106.1796 269° West  Level Estimated
Sat 07:44:00 AM 32.9335 106.0609 269° West  Level Estimated
Sat 07:45:00 AM 32.9308 105.9423 268° West  Level Estimated
Sat 07:46:00 AM 32.9279 105.8237 268° West  Level Estimated
Sat 07:47:00 AM 32.9249 105.7050 268° West  Level Estimated
Sat 07:48:00 AM 32.9218 105.5864 268° West  Level Estimated
Sat 07:49:00 AM 32.9187 105.4678 268° West  Level Estimated
Sat 07:50:00 AM 32.9153 105.3492 268° West  Level Estimated
Sat 07:51:00 AM 32.9119 105.2306 268° West  Level Estimated
Sat 07:52:00 AM 32.9084 105.1120 268° West  Level Estimated
Sat 07:53:00 AM 32.9048 104.9934 268° West  Level Estimated
Sat 07:54:00 AM 32.9010 104.8749 268° West  Level Estimated
Sat 07:55:00 AM 32.8971 104.7563 268° West  Level Estimated
Sat 07:56:00 AM 32.8931 104.6378 268° West  Level Estimated
Sat 07:57:00 AM 32.8890 104.5192 268° West  Level Estimated
Sat 07:58:00 AM 32.8848 104.4007 268° West  Level Estimated
Sat 07:59:00 AM 32.8805 104.2822 268° West  Level Estimated
Sat 08:00:00 AM 32.8761 104.1637 267° West  Level Estimated
Sat 08:01:00 AM 32.8716 104.0452 267° West  Level Estimated
Sat 08:02:00 AM 32.8669 103.9267 267° West  Level Estimated
Sat 08:03:00 AM 32.8621 103.8083 267° West  Level Estimated
Sat 08:04:00 AM 32.8573 103.6898 267° West  Level Estimated
Sat 08:05:00 AM 32.8570 103.6830 267° West  Level Estimated

Login

Don't have an account? Register now (free) for customized features, flight alerts, and more!